createdAt,value
2023-03-03T00:00:37.753Z,6.60
2023-03-03T00:03:09.392Z,6.60
2023-03-03T00:05:38.775Z,6.60
2023-03-03T00:08:08.590Z,6.60
2023-03-03T00:10:37.139Z,6.60
2023-03-03T00:13:05.722Z,6.60
2023-03-03T00:15:34.244Z,6.60
2023-03-03T00:18:03.544Z,6.60
2023-03-03T00:20:37.832Z,6.60
2023-03-03T00:23:18.500Z,6.60
2023-03-03T00:25:50.330Z,6.60
2023-03-03T00:28:26.879Z,6.60
2023-03-03T00:30:56.646Z,6.60
2023-03-03T00:33:29.527Z,6.60
2023-03-03T00:35:58.486Z,6.60
2023-03-03T00:38:28.613Z,6.70
2023-03-03T00:40:57.129Z,6.70
2023-03-03T00:43:28.089Z,6.70
2023-03-03T00:45:57.710Z,6.80
2023-03-03T00:48:28.408Z,6.80
2023-03-03T00:50:58.293Z,6.80
2023-03-03T00:53:29.761Z,6.80
2023-03-03T00:55:59.210Z,6.90
2023-03-03T00:58:28.334Z,6.90
2023-03-03T01:00:58.962Z,6.90
2023-03-03T01:03:37.186Z,6.90
2023-03-03T01:06:06.673Z,6.90
2023-03-03T01:08:36.659Z,6.80
2023-03-03T01:11:08.609Z,6.80
2023-03-03T01:13:38.649Z,6.90
2023-03-03T01:16:07.974Z,6.80
2023-03-03T01:18:37.499Z,6.80
2023-03-03T01:21:06.155Z,6.80
2023-03-03T01:23:36.176Z,6.80
2023-03-03T01:26:06.284Z,6.80
2023-03-03T01:28:34.998Z,6.80
2023-03-03T01:31:05.033Z,6.80
2023-03-03T01:33:34.281Z,6.80
2023-03-03T01:36:02.938Z,6.80
2023-03-03T01:38:31.720Z,6.80
2023-03-03T01:41:01.913Z,6.80
2023-03-03T01:43:31.571Z,6.80
2023-03-03T01:46:36.634Z,6.80
2023-03-03T01:49:08.696Z,6.80
2023-03-03T01:51:44.114Z,6.70
2023-03-03T01:54:16.955Z,6.70
2023-03-03T01:56:47.269Z,6.70
2023-03-03T01:59:19.341Z,6.70
2023-03-03T02:01:49.234Z,6.70
2023-03-03T02:04:18.714Z,6.70
2023-03-03T02:06:51.742Z,6.70
2023-03-03T02:09:27.286Z,6.70
2023-03-03T02:12:02.681Z,6.70
2023-03-03T02:14:31.229Z,6.70
2023-03-03T02:16:59.895Z,6.70
2023-03-03T02:19:39.299Z,6.70
2023-03-03T02:22:08.774Z,6.70
2023-03-03T02:24:43.136Z,6.70
2023-03-03T02:27:14.177Z,6.70
2023-03-03T02:29:44.204Z,6.70
2023-03-03T02:32:12.957Z,6.70
2023-03-03T02:34:49.223Z,6.70
2023-03-03T02:37:18.115Z,6.70
2023-03-03T02:39:46.898Z,6.80
2023-03-03T02:42:24.143Z,6.70
2023-03-03T02:44:56.415Z,6.80
2023-03-03T02:47:25.211Z,6.80
2023-03-03T02:49:54.077Z,6.80
2023-03-03T02:52:22.486Z,6.70
2023-03-03T02:54:51.417Z,6.70
2023-03-03T02:57:21.195Z,6.70
2023-03-03T02:59:50.407Z,6.60
2023-03-03T03:02:20.441Z,6.60
2023-03-03T03:04:49.195Z,6.60
2023-03-03T03:07:22.513Z,6.50
2023-03-03T03:09:51.231Z,6.50
2023-03-03T03:12:21.317Z,6.50
2023-03-03T03:14:52.983Z,6.60
2023-03-03T03:17:21.734Z,6.60
2023-03-03T03:19:51.528Z,6.50
2023-03-03T03:22:21.111Z,6.60
2023-03-03T03:24:49.719Z,6.60
2023-03-03T03:27:19.392Z,6.60
2023-03-03T03:29:50.678Z,6.60
2023-03-03T03:32:20.206Z,6.50
2023-03-03T03:34:49.238Z,6.50
2023-03-03T03:37:18.362Z,6.50
2023-03-03T03:39:48.077Z,6.60
2023-03-03T03:42:16.564Z,6.60
2023-03-03T03:44:45.312Z,6.60
2023-03-03T03:47:15.210Z,6.60
2023-03-03T03:49:44.198Z,6.60
2023-03-03T03:52:13.869Z,6.60
2023-03-03T03:54:42.712Z,6.60
2023-03-03T03:57:11.190Z,6.60
2023-03-03T03:59:39.982Z,6.70
2023-03-03T04:02:08.616Z,6.70
2023-03-03T04:04:38.786Z,6.70
2023-03-03T04:07:09.271Z,6.70
2023-03-03T04:09:39.543Z,6.70
2023-03-03T04:12:08.485Z,6.70
2023-03-03T04:14:37.687Z,6.70
2023-03-03T04:17:06.611Z,6.60
2023-03-03T04:19:35.150Z,6.60
2023-03-03T04:22:07.058Z,6.60
2023-03-03T04:24:35.996Z,6.60
2023-03-03T04:27:05.934Z,6.60
2023-03-03T04:29:35.699Z,6.60
2023-03-03T04:32:04.346Z,6.60
2023-03-03T04:34:34.090Z,6.50
2023-03-03T04:37:04.960Z,6.40
2023-03-03T04:39:34.068Z,6.40
2023-03-03T04:42:02.683Z,6.40
2023-03-03T04:44:31.987Z,6.30
2023-03-03T04:47:00.919Z,6.20
2023-03-03T04:49:29.476Z,6.20
2023-03-03T04:51:59.587Z,6.20
2023-03-03T04:54:29.578Z,6.10
2023-03-03T04:56:58.597Z,6.00
2023-03-03T04:59:27.167Z,6.00
2023-03-03T05:01:55.675Z,5.90
2023-03-03T05:04:24.399Z,6.00
2023-03-03T05:06:52.852Z,5.90
2023-03-03T05:09:21.384Z,5.90
2023-03-03T05:11:51.755Z,5.90
2023-03-03T05:14:20.700Z,5.90
2023-03-03T05:16:49.156Z,5.80
2023-03-03T05:19:17.825Z,5.80
2023-03-03T05:21:46.574Z,5.70
2023-03-03T05:24:15.950Z,5.70
2023-03-03T05:26:44.347Z,5.70
2023-03-03T05:29:14.259Z,5.60
2023-03-03T05:31:45.424Z,5.60
2023-03-03T05:34:14.196Z,5.60
2023-03-03T05:36:42.695Z,5.60
2023-03-03T05:39:11.230Z,5.60
2023-03-03T05:41:40.356Z,5.60
2023-03-03T05:44:09.240Z,5.50
2023-03-03T05:46:39.219Z,5.50
2023-03-03T05:49:07.711Z,5.60
2023-03-03T05:51:36.231Z,5.50
2023-03-03T05:54:04.736Z,5.50
2023-03-03T05:56:33.265Z,5.50
2023-03-03T05:59:01.701Z,5.50
2023-03-03T06:01:30.593Z,5.60
2023-03-03T06:04:00.442Z,5.60
2023-03-03T06:06:29.232Z,5.50
2023-03-03T06:08:57.747Z,5.60
2023-03-03T06:11:26.302Z,5.60
2023-03-03T06:13:55.036Z,5.60
2023-03-03T06:16:23.472Z,5.60
2023-03-03T06:18:52.038Z,5.70
2023-03-03T06:21:21.828Z,5.70
2023-03-03T06:23:50.354Z,5.80
2023-03-03T06:26:18.762Z,5.80
2023-03-03T06:28:48.167Z,5.90
2023-03-03T06:31:16.580Z,5.90
2023-03-03T06:33:45.251Z,5.90
2023-03-03T06:36:13.734Z,6.00
2023-03-03T06:38:43.663Z,6.10
2023-03-03T06:41:12.580Z,6.10
2023-03-03T06:43:41.164Z,6.10
2023-03-03T06:46:09.661Z,6.20
2023-03-03T06:48:38.339Z,6.30
2023-03-03T06:51:26.856Z,6.40
2023-03-03T06:53:59.335Z,6.50
2023-03-03T06:56:28.143Z,6.70
2023-03-03T06:58:58.748Z,6.70
2023-03-03T07:01:28.279Z,6.80
2023-03-03T07:03:56.965Z,6.90
2023-03-03T07:06:28.309Z,7.00
2023-03-03T07:08:58.564Z,7.00
2023-03-03T07:11:27.017Z,7.20
2023-03-03T07:13:56.535Z,7.30
2023-03-03T07:16:27.896Z,7.40
2023-03-03T07:18:58.620Z,7.50
2023-03-03T07:21:32.159Z,7.60
2023-03-03T07:24:20.258Z,7.60
2023-03-03T07:26:48.715Z,7.70
2023-03-03T07:29:24.793Z,7.70
2023-03-03T07:31:54.496Z,7.70
2023-03-03T07:34:24.876Z,7.80
2023-03-03T07:36:59.700Z,7.80
2023-03-03T07:39:37.210Z,7.90
2023-03-03T07:42:27.870Z,8.00
2023-03-03T07:45:27.509Z,8.10
2023-03-03T07:48:02.764Z,8.20
2023-03-03T07:50:31.501Z,8.30
2023-03-03T07:53:01.529Z,8.60
2023-03-03T07:55:36.797Z,8.70
2023-03-03T07:58:26.135Z,8.90
2023-03-03T08:01:26.900Z,9.00
2023-03-03T08:03:55.614Z,9.20
2023-03-03T08:06:40.337Z,9.40
2023-03-03T08:09:38.411Z,9.50
2023-03-03T08:12:33.152Z,9.60
2023-03-03T08:15:21.860Z,9.80
2023-03-03T08:17:51.948Z,9.90
2023-03-03T08:20:44.252Z,9.90
2023-03-03T08:23:12.945Z,10.00
2023-03-03T08:25:42.501Z,10.10
2023-03-03T08:28:12.889Z,10.10
2023-03-03T08:30:41.575Z,10.20
2023-03-03T08:33:10.242Z,10.20
2023-03-03T08:35:38.785Z,10.30
2023-03-03T08:38:07.580Z,10.30
2023-03-03T08:40:37.303Z,10.30
2023-03-03T08:43:05.976Z,10.30
2023-03-03T08:45:36.871Z,10.30
2023-03-03T08:48:06.225Z,10.30
2023-03-03T08:50:35.143Z,10.40
2023-03-03T08:53:03.676Z,10.50
2023-03-03T08:55:35.754Z,10.60
2023-03-03T08:58:05.093Z,10.70
2023-03-03T09:00:35.377Z,10.80
2023-03-03T09:03:04.195Z,10.90
2023-03-03T09:05:32.846Z,10.90
2023-03-03T09:08:01.591Z,11.00
2023-03-03T09:10:32.303Z,11.10
2023-03-03T09:13:05.801Z,11.20
2023-03-03T09:15:38.870Z,11.30
2023-03-03T09:18:16.557Z,11.30
2023-03-03T09:20:45.734Z,11.40
2023-03-03T09:23:31.550Z,11.40
2023-03-03T09:26:15.077Z,11.50
2023-03-03T09:28:43.979Z,11.50
2023-03-03T09:31:26.907Z,11.80
2023-03-03T09:33:58.000Z,11.90
2023-03-03T09:36:29.115Z,12.00
2023-03-03T09:38:59.033Z,12.20
2023-03-03T09:42:00.348Z,12.20
2023-03-03T09:45:22.575Z,12.30
2023-03-03T09:48:31.573Z,12.40
2023-03-03T09:51:14.112Z,12.50
2023-03-03T09:54:01.971Z,12.70
2023-03-03T09:56:35.863Z,12.80
2023-03-03T09:59:16.785Z,13.00
2023-03-03T10:01:55.796Z,13.10
2023-03-03T10:04:43.627Z,13.20
2023-03-03T10:07:24.778Z,13.10
2023-03-03T10:10:17.465Z,13.20
2023-03-03T10:12:56.071Z,13.20
2023-03-03T10:15:39.354Z,13.10
2023-03-03T10:18:24.478Z,13.10
2023-03-03T10:21:06.411Z,13.10
2023-03-03T10:23:58.459Z,13.00
2023-03-03T10:27:05.192Z,13.00
2023-03-03T10:29:44.356Z,13.10
2023-03-03T10:32:51.816Z,13.10
2023-03-03T10:35:32.472Z,13.10
2023-03-03T10:38:24.027Z,13.00
2023-03-03T10:40:58.474Z,12.90
2023-03-03T10:43:43.334Z,12.80
2023-03-03T10:46:27.124Z,12.80
2023-03-03T10:49:21.173Z,12.80
2023-03-03T10:52:02.575Z,12.70
2023-03-03T10:54:47.162Z,12.70
2023-03-03T10:57:23.058Z,12.80
2023-03-03T11:00:06.257Z,12.90
2023-03-03T11:02:40.068Z,13.00
2023-03-03T11:05:33.901Z,13.10
2023-03-03T11:08:07.430Z,13.20
2023-03-03T11:10:52.417Z,13.20
2023-03-03T11:13:26.545Z,13.30
2023-03-03T11:16:26.919Z,13.20
2023-03-03T11:19:09.241Z,13.20
2023-03-03T11:21:47.110Z,13.10
2023-03-03T11:24:28.142Z,13.00
2023-03-03T11:27:15.383Z,13.10
2023-03-03T11:29:56.834Z,13.10
2023-03-03T11:32:34.314Z,13.10
2023-03-03T11:35:19.175Z,13.10
2023-03-03T11:37:58.167Z,13.10
2023-03-03T11:40:29.910Z,13.00
2023-03-03T11:43:07.437Z,13.00
2023-03-03T11:45:43.269Z,13.00
2023-03-03T11:48:19.547Z,13.00
2023-03-03T11:50:56.838Z,13.00
2023-03-03T11:53:33.160Z,13.00
2023-03-03T11:56:07.761Z,13.00
2023-03-03T11:58:43.907Z,13.10
2023-03-03T12:01:20.248Z,13.00
2023-03-03T12:03:54.738Z,13.10
2023-03-03T12:06:29.844Z,13.20
2023-03-03T12:09:26.847Z,13.20
2023-03-03T12:11:58.411Z,13.20
2023-03-03T12:14:42.881Z,13.10
2023-03-03T12:17:22.872Z,13.00
2023-03-03T12:19:59.786Z,12.70
2023-03-03T12:22:34.152Z,12.50
2023-03-03T12:25:27.508Z,12.50
2023-03-03T12:28:01.540Z,12.40
2023-03-03T12:30:44.584Z,12.50
2023-03-03T12:33:28.302Z,12.70
2023-03-03T12:36:08.522Z,13.00
2023-03-03T12:38:46.532Z,12.80
2023-03-03T12:41:23.099Z,13.00
2023-03-03T12:43:59.797Z,13.10
2023-03-03T12:46:41.171Z,13.10
2023-03-03T12:49:09.810Z,13.00
2023-03-03T12:51:46.590Z,13.10
2023-03-03T12:54:51.101Z,13.20
2023-03-03T12:57:27.574Z,13.30
2023-03-03T13:00:19.947Z,13.30
2023-03-03T13:02:59.753Z,13.20
2023-03-03T13:05:34.579Z,13.20
2023-03-03T13:08:32.796Z,13.40
2023-03-03T13:11:20.723Z,13.60
2023-03-03T13:13:55.018Z,13.70
2023-03-03T13:16:40.318Z,13.70
2023-03-03T13:19:15.837Z,13.70
2023-03-03T13:21:51.988Z,13.60
2023-03-03T13:24:26.807Z,13.70
2023-03-03T13:26:58.613Z,13.10
2023-03-03T13:29:31.475Z,12.60
2023-03-03T13:32:04.842Z,12.30
2023-03-03T13:34:45.122Z,12.70
2023-03-03T13:37:21.020Z,13.10
2023-03-03T13:39:59.065Z,13.10
2023-03-03T13:42:34.418Z,13.00
2023-03-03T13:45:08.488Z,13.10
2023-03-03T13:47:46.537Z,13.30
2023-03-03T13:50:25.174Z,13.30
2023-03-03T13:53:19.126Z,13.30
2023-03-03T13:55:58.513Z,13.40
2023-03-03T13:58:38.424Z,13.60
2023-03-03T14:01:16.191Z,13.80
2023-03-03T14:04:07.681Z,13.90
2023-03-03T14:06:38.870Z,14.00
2023-03-03T14:09:23.608Z,13.90
2023-03-03T14:11:58.273Z,13.90
2023-03-03T14:14:47.236Z,14.00
2023-03-03T14:17:24.248Z,13.80
2023-03-03T14:20:03.254Z,13.80
2023-03-03T14:22:42.671Z,13.80
2023-03-03T14:25:12.751Z,13.60
2023-03-03T14:28:01.354Z,13.10
2023-03-03T14:30:38.059Z,13.30
2023-03-03T14:33:21.067Z,13.70
2023-03-03T14:36:08.748Z,14.10
2023-03-03T14:38:56.452Z,14.20
2023-03-03T14:41:39.807Z,14.10
2023-03-03T14:44:27.809Z,14.00
2023-03-03T14:47:20.077Z,13.70
2023-03-03T14:49:48.680Z,13.50
2023-03-03T14:52:26.367Z,13.30
2023-03-03T14:54:57.289Z,13.20
2023-03-03T14:57:46.545Z,13.20
2023-03-03T15:00:36.428Z,13.20
2023-03-03T15:03:23.777Z,13.40
2023-03-03T15:05:53.246Z,13.50
2023-03-03T15:08:31.563Z,13.50
2023-03-03T15:11:15.188Z,13.40
2023-03-03T15:13:43.728Z,13.40
2023-03-03T15:16:18.302Z,13.50
2023-03-03T15:19:16.395Z,13.60
2023-03-03T15:21:53.766Z,13.60
2023-03-03T15:24:27.741Z,13.70
2023-03-03T15:27:03.722Z,13.50
2023-03-03T15:29:38.494Z,13.10
2023-03-03T15:32:12.262Z,13.00
2023-03-03T15:34:45.410Z,13.30
2023-03-03T15:37:27.291Z,13.50
2023-03-03T15:40:04.083Z,13.60
2023-03-03T15:42:43.953Z,13.60
2023-03-03T15:45:22.862Z,13.40
2023-03-03T15:48:13.753Z,13.40
2023-03-03T15:50:50.217Z,13.40
2023-03-03T15:53:43.849Z,13.30
2023-03-03T15:56:26.685Z,13.20
2023-03-03T15:59:37.183Z,12.90
2023-03-03T16:02:16.337Z,12.60
2023-03-03T16:04:54.474Z,12.60
2023-03-03T16:07:41.580Z,12.60
2023-03-03T16:10:28.271Z,12.80
2023-03-03T16:13:04.618Z,12.80
2023-03-03T16:15:44.114Z,12.80
2023-03-03T16:18:22.829Z,12.30
2023-03-03T16:21:03.589Z,11.90
2023-03-03T16:23:41.145Z,12.00
2023-03-03T16:26:19.378Z,12.10
2023-03-03T16:29:19.659Z,12.20
2023-03-03T16:31:54.169Z,12.20
2023-03-03T16:34:27.437Z,12.10
2023-03-03T16:37:05.707Z,11.60
2023-03-03T16:39:43.965Z,11.60
2023-03-03T16:42:21.835Z,11.50
2023-03-03T16:45:01.731Z,11.50
2023-03-03T16:47:42.401Z,11.30
2023-03-03T16:50:21.163Z,11.20
2023-03-03T16:52:55.160Z,11.20
2023-03-03T16:55:29.310Z,11.20
2023-03-03T16:58:09.890Z,11.20
2023-03-03T17:00:46.449Z,11.30
2023-03-03T17:03:36.985Z,11.30
2023-03-03T17:06:12.447Z,11.00
2023-03-03T17:08:58.092Z,10.60
2023-03-03T17:11:35.547Z,10.40
2023-03-03T17:14:17.660Z,10.30
2023-03-03T17:16:57.874Z,10.30
2023-03-03T17:19:50.446Z,10.30
2023-03-03T17:22:26.476Z,10.40
2023-03-03T17:25:07.039Z,10.30
2023-03-03T17:27:49.535Z,10.00
2023-03-03T17:30:24.387Z,9.90
2023-03-03T17:33:12.575Z,9.90
2023-03-03T17:35:56.863Z,9.70
2023-03-03T17:38:36.176Z,9.40
2023-03-03T17:41:08.138Z,9.40
2023-03-03T17:43:45.990Z,9.60
2023-03-03T17:46:19.927Z,9.70
2023-03-03T17:49:13.519Z,9.70
2023-03-03T17:52:09.152Z,9.30
2023-03-03T17:54:55.707Z,9.10
2023-03-03T17:57:38.315Z,9.20
2023-03-03T18:00:25.063Z,9.30
2023-03-03T18:03:29.965Z,9.40
2023-03-03T18:06:25.529Z,9.00
2023-03-03T18:09:14.487Z,8.60
2023-03-03T18:11:59.116Z,8.60
2023-03-03T18:14:56.294Z,8.70
2023-03-03T18:17:46.482Z,8.90
2023-03-03T18:20:33.942Z,9.00
2023-03-03T18:23:31.146Z,9.00
2023-03-03T18:26:02.426Z,9.10
2023-03-03T18:28:48.921Z,9.00
2023-03-03T18:31:25.655Z,9.00
2023-03-03T18:34:05.247Z,8.90
2023-03-03T18:36:53.227Z,8.90
2023-03-03T18:39:43.374Z,8.80
2023-03-03T18:42:48.894Z,8.80
2023-03-03T18:45:48.636Z,8.70
2023-03-03T18:48:20.067Z,8.60
2023-03-03T18:50:52.517Z,8.50
2023-03-03T18:53:27.250Z,8.50
2023-03-03T18:55:57.224Z,8.50
2023-03-03T18:58:44.869Z,8.40
2023-03-03T19:01:30.976Z,8.40
2023-03-03T19:04:19.138Z,8.30
2023-03-03T19:07:17.236Z,8.20
2023-03-03T19:09:53.185Z,8.20
2023-03-03T19:12:47.991Z,8.20
2023-03-03T19:15:45.332Z,8.20
2023-03-03T19:18:21.235Z,8.20
2023-03-03T19:20:55.664Z,8.10
2023-03-03T19:23:31.979Z,8.10
2023-03-03T19:26:37.796Z,8.00
2023-03-03T19:29:24.592Z,8.00
2023-03-03T19:31:59.684Z,8.00
2023-03-03T19:34:33.816Z,8.00
2023-03-03T19:37:17.315Z,7.90
2023-03-03T19:39:59.031Z,7.90
2023-03-03T19:42:39.979Z,7.90
2023-03-03T19:45:24.863Z,7.80
2023-03-03T19:48:00.119Z,7.70
2023-03-03T19:50:38.054Z,7.70
2023-03-03T19:53:16.506Z,7.60
2023-03-03T19:55:58.539Z,7.60
2023-03-03T19:58:34.003Z,7.50
2023-03-03T20:01:12.484Z,7.40
2023-03-03T20:04:22.777Z,7.40
2023-03-03T20:06:58.474Z,7.30
2023-03-03T20:09:34.712Z,7.20
2023-03-03T20:12:30.000Z,7.20
2023-03-03T20:15:09.745Z,7.20
2023-03-03T20:18:15.752Z,7.20
2023-03-03T20:21:05.865Z,7.10
2023-03-03T20:23:43.589Z,7.10
2023-03-03T20:26:18.678Z,7.10
2023-03-03T20:29:18.114Z,7.00
2023-03-03T20:31:55.659Z,7.00
2023-03-03T20:34:37.175Z,6.90
2023-03-03T20:37:12.297Z,6.90
2023-03-03T20:39:52.760Z,6.90
2023-03-03T20:42:34.671Z,6.80
2023-03-03T20:45:20.023Z,6.70
2023-03-03T20:47:59.287Z,6.70
2023-03-03T20:50:37.527Z,6.80
2023-03-03T20:53:18.370Z,6.70
2023-03-03T20:55:54.961Z,6.70
2023-03-03T20:58:33.111Z,6.70
2023-03-03T21:01:07.341Z,6.60
2023-03-03T21:03:38.518Z,6.50
2023-03-03T21:06:15.209Z,6.40
2023-03-03T21:08:53.252Z,6.40
2023-03-03T21:11:23.639Z,6.50
2023-03-03T21:13:54.370Z,6.40
2023-03-03T21:16:35.681Z,6.50
2023-03-03T21:19:06.683Z,6.50
2023-03-03T21:21:38.304Z,6.40
2023-03-03T21:24:07.825Z,6.40
2023-03-03T21:26:47.654Z,6.40
2023-03-03T21:29:21.854Z,6.40
2023-03-03T21:31:52.620Z,6.40
2023-03-03T21:34:24.740Z,6.40
2023-03-03T21:36:55.905Z,6.40
2023-03-03T21:39:28.449Z,6.40
2023-03-03T21:41:59.543Z,6.40
2023-03-03T21:44:37.083Z,6.50
2023-03-03T21:47:06.915Z,6.50
2023-03-03T21:49:35.509Z,6.50
2023-03-03T21:52:05.847Z,6.50
2023-03-03T21:54:34.376Z,6.50
2023-03-03T21:57:02.984Z,6.50
2023-03-03T21:59:32.364Z,6.50
2023-03-03T22:02:00.806Z,6.50
2023-03-03T22:04:29.766Z,6.50
2023-03-03T22:06:58.631Z,6.40
2023-03-03T22:09:29.406Z,6.40
2023-03-03T22:11:57.967Z,6.30
2023-03-03T22:14:26.474Z,6.30
2023-03-03T22:16:55.005Z,6.40
2023-03-03T22:19:24.014Z,6.30
2023-03-03T22:21:52.905Z,6.30
2023-03-03T22:24:21.399Z,6.30
2023-03-03T22:26:51.301Z,6.30
2023-03-03T22:29:23.122Z,6.30
2023-03-03T22:31:52.251Z,6.20
2023-03-03T22:34:20.847Z,6.20
2023-03-03T22:36:49.396Z,6.20
2023-03-03T22:39:17.888Z,6.20
2023-03-03T22:41:46.468Z,6.20
2023-03-03T22:44:16.279Z,6.20
2023-03-03T22:46:44.710Z,6.10
2023-03-03T22:49:13.208Z,6.10
2023-03-03T22:51:41.833Z,6.10
2023-03-03T22:54:10.297Z,6.10
2023-03-03T22:56:38.888Z,6.10
2023-03-03T22:59:07.304Z,6.10
2023-03-03T23:01:37.294Z,6.10
2023-03-03T23:04:06.169Z,6.10
2023-03-03T23:06:34.672Z,6.00
2023-03-03T23:09:03.184Z,6.00
2023-03-03T23:11:31.725Z,6.00
2023-03-03T23:14:00.215Z,5.90
2023-03-03T23:16:28.742Z,5.90
2023-03-03T23:18:58.648Z,5.90
2023-03-03T23:21:27.215Z,5.90
2023-03-03T23:23:55.679Z,5.90
2023-03-03T23:26:24.156Z,5.80
2023-03-03T23:28:52.647Z,5.80
2023-03-03T23:31:21.452Z,5.80
2023-03-03T23:33:49.890Z,5.80
2023-03-03T23:36:19.792Z,5.70
2023-03-03T23:38:48.282Z,5.70
2023-03-03T23:41:16.784Z,5.60
2023-03-03T23:43:45.240Z,5.60
2023-03-03T23:46:15.281Z,5.60
2023-03-03T23:48:43.770Z,5.50
2023-03-03T23:51:12.315Z,5.50
2023-03-03T23:53:42.243Z,5.50
2023-03-03T23:56:10.850Z,5.50
2023-03-03T23:58:39.492Z,5.50
